createdAt,value
2019-04-01T00:01:54.490Z,102285.13
2019-04-01T00:04:24.997Z,102285.65
2019-04-01T00:06:55.484Z,102283.05
2019-04-01T00:09:25.968Z,102288.00
2019-04-01T00:11:56.573Z,102294.45
2019-04-01T00:14:27.154Z,102290.54
2019-04-01T00:16:57.677Z,102292.66
2019-04-01T00:19:28.136Z,102290.13
2019-04-01T00:21:58.551Z,102290.06
2019-04-01T00:24:29.050Z,102286.33
2019-04-01T00:26:59.612Z,102288.93
2019-04-01T00:29:30.114Z,102295.58
2019-04-01T00:32:00.612Z,102297.13
2019-04-01T00:34:31.162Z,102292.98
2019-04-01T00:37:01.666Z,102287.23
2019-04-01T00:39:32.132Z,102294.34
2019-04-01T00:42:25.466Z,102298.88
2019-04-01T00:44:56.557Z,102299.66
2019-04-01T00:47:27.032Z,102296.84
2019-04-01T00:49:57.518Z,102296.59
2019-04-01T00:52:28.022Z,102294.88
2019-04-01T00:54:58.806Z,102297.55
2019-04-01T00:57:29.300Z,102296.34
2019-04-01T00:59:59.838Z,102298.19
2019-04-01T01:02:30.294Z,102295.73
2019-04-01T01:05:00.793Z,102293.56
2019-04-01T01:07:31.271Z,102292.79
2019-04-01T01:10:01.760Z,102288.19
2019-04-01T01:12:32.241Z,102289.52
2019-04-01T01:15:02.797Z,102293.80
2019-04-01T01:17:33.158Z,102289.03
2019-04-01T01:20:03.667Z,102285.39
2019-04-01T01:22:34.171Z,102284.58
2019-04-01T01:25:04.682Z,102283.71
2019-04-01T01:27:35.120Z,102276.34
2019-04-01T01:30:05.813Z,102279.64
2019-04-01T01:32:36.198Z,102278.28
2019-04-01T01:35:06.806Z,102274.58
2019-04-01T01:37:37.321Z,102276.78
2019-04-01T01:40:07.975Z,102281.73
2019-04-01T01:42:38.452Z,102270.91
2019-04-01T01:45:08.922Z,102273.05
2019-04-01T01:47:39.387Z,102273.30
2019-04-01T01:50:09.844Z,102268.67
2019-04-01T01:52:40.374Z,102274.22
2019-04-01T01:55:11.474Z,102272.36
2019-04-01T01:57:41.899Z,102271.40
2019-04-01T02:00:13.854Z,102269.64
2019-04-01T02:02:44.341Z,102271.77
2019-04-01T02:05:14.816Z,102268.77
2019-04-01T02:07:45.325Z,102265.30
2019-04-01T02:10:15.776Z,102264.58
2019-04-01T02:12:46.239Z,102267.71
2019-04-01T02:15:16.817Z,102262.60
2019-04-01T02:17:47.348Z,102259.53
2019-04-01T02:20:17.850Z,102260.23
2019-04-01T02:22:48.389Z,102261.34
2019-04-01T02:25:18.911Z,102261.29
2019-04-01T02:27:49.401Z,102264.84
2019-04-01T02:30:19.907Z,102264.44
2019-04-01T02:32:50.331Z,102260.13
2019-04-01T02:35:20.771Z,102267.53
2019-04-01T02:37:51.362Z,102268.34
2019-04-01T02:40:22.461Z,102264.84
2019-04-01T02:42:53.272Z,102270.13
2019-04-01T02:45:23.754Z,102264.03
2019-04-01T02:47:54.234Z,102271.66
2019-04-01T02:50:24.708Z,102268.16
2019-04-01T02:52:55.277Z,102267.38
2019-04-01T02:55:25.715Z,102268.23
2019-04-01T02:57:56.255Z,102264.35
2019-04-01T03:00:26.824Z,102267.33
2019-04-01T03:02:57.345Z,102268.11
2019-04-01T03:05:27.824Z,102271.38
2019-04-01T03:07:58.322Z,102266.98
2019-04-01T03:10:28.920Z,102270.16
2019-04-01T04:04:51.806Z,102277.60
2019-04-01T04:07:22.386Z,102282.23
2019-04-01T04:09:52.929Z,102278.03
2019-04-01T04:12:23.502Z,102277.22
2019-04-01T04:14:53.988Z,102278.93
2019-04-01T04:17:24.596Z,102277.20
2019-04-01T04:19:55.132Z,102277.63
2019-04-01T04:22:25.828Z,102282.38
2019-04-01T04:24:56.343Z,102287.78
2019-04-01T04:27:26.943Z,102288.16
2019-04-01T04:29:57.409Z,102282.97
2019-04-01T04:32:27.925Z,102286.11
2019-04-01T04:34:58.450Z,102288.68
2019-04-01T04:37:28.910Z,102295.64
2019-04-01T04:39:59.386Z,102290.70
2019-04-01T04:42:29.875Z,102300.28
2019-04-01T04:45:00.580Z,102296.28
2019-04-01T04:47:31.083Z,102297.09
2019-04-01T04:50:01.621Z,102299.84
2019-04-01T04:52:32.206Z,102299.42
2019-04-01T04:55:02.737Z,102298.93
2019-04-01T04:57:33.336Z,102300.45
2019-04-01T05:00:04.118Z,102300.52
2019-04-01T05:02:34.653Z,102307.44
2019-04-01T05:05:05.420Z,102306.06
2019-04-01T05:07:36.020Z,102307.13
2019-04-01T05:10:07.805Z,102304.61
2019-04-01T05:12:38.503Z,102302.02
2019-04-01T05:15:09.175Z,102308.25
2019-04-01T05:17:39.654Z,102309.14
2019-04-01T05:20:10.393Z,102306.09
2019-04-01T05:22:42.195Z,102312.45
2019-04-01T05:25:12.694Z,102319.36
2019-04-01T05:27:45.801Z,102316.20
2019-04-01T05:30:16.533Z,102324.34
2019-04-01T05:32:50.061Z,102315.59
2019-04-01T05:35:20.815Z,102324.55
2019-04-01T05:37:51.295Z,102324.78
2019-04-01T05:40:21.847Z,102317.28
2019-04-01T05:42:52.346Z,102318.33
2019-04-01T05:45:22.860Z,102318.30
2019-04-01T05:47:53.977Z,102325.94
2019-04-01T05:50:24.471Z,102322.03
2019-04-01T05:52:55.789Z,102322.77
2019-04-01T05:55:27.027Z,102325.16
2019-04-01T05:57:57.503Z,102330.71
2019-04-01T06:00:34.228Z,102328.86
2019-04-01T06:03:04.698Z,102329.16
2019-04-01T06:05:35.279Z,102331.20
2019-04-01T06:08:05.790Z,102341.89
2019-04-01T06:10:36.977Z,102338.70
2019-04-01T06:13:07.491Z,102339.45
2019-04-01T06:15:38.609Z,102334.13
2019-04-01T06:18:09.107Z,102330.90
2019-04-01T06:20:40.162Z,102335.17
2019-04-01T06:23:10.717Z,102335.79
2019-04-01T06:25:41.174Z,102333.36
2019-04-01T06:28:11.712Z,102342.59
2019-04-01T06:30:42.234Z,102349.67
2019-04-01T06:33:12.709Z,102353.30
2019-04-01T06:35:43.170Z,102343.58
2019-04-01T06:38:13.716Z,102343.41
2019-04-01T06:40:44.415Z,102345.22
2019-04-01T06:43:14.923Z,102344.31
2019-04-01T06:45:45.406Z,102341.67
2019-04-01T06:48:15.999Z,102345.33
2019-04-01T06:50:46.710Z,102345.79
2019-04-01T06:53:17.179Z,102344.86
2019-04-01T06:55:47.640Z,102339.13
2019-04-01T06:58:18.168Z,102345.17
2019-04-01T07:00:48.965Z,102337.23
2019-04-01T07:03:19.396Z,102341.42
2019-04-01T07:05:52.789Z,102341.55
2019-04-01T07:08:23.309Z,102344.42
2019-04-01T07:10:54.480Z,102341.49
2019-04-01T07:13:24.977Z,102354.75
2019-04-01T07:15:55.528Z,102353.61
2019-04-01T07:18:26.135Z,102351.30
2019-04-01T07:20:58.286Z,102347.69
2019-04-01T07:23:28.824Z,102352.22
2019-04-01T07:25:59.342Z,102357.38
2019-04-01T07:28:29.974Z,102354.30
2019-04-01T07:31:00.541Z,102354.97
2019-04-01T07:33:31.034Z,102355.73
2019-04-01T07:36:01.617Z,102358.47
2019-04-01T07:38:32.214Z,102354.67
2019-04-01T07:41:02.766Z,102361.99
2019-04-01T07:43:33.231Z,102364.28
2019-04-01T07:46:03.845Z,102357.89
2019-04-01T07:48:34.436Z,102355.46
2019-04-01T07:51:07.101Z,102356.19
2019-04-01T07:53:37.171Z,102360.39
2019-04-01T07:56:07.669Z,102359.53
2019-04-01T07:58:38.142Z,102357.98
2019-04-01T08:01:08.744Z,102354.00
2019-04-01T08:03:41.879Z,102350.84
2019-04-01T08:06:11.569Z,102355.35
2019-04-01T08:08:42.195Z,102353.92
2019-04-01T08:11:12.676Z,102351.90
2019-04-01T08:13:43.159Z,102348.20
2019-04-01T08:16:13.633Z,102351.69
2019-04-01T08:18:44.144Z,102342.97
2019-04-01T08:21:14.644Z,102339.89
2019-04-01T08:23:45.368Z,102341.63
2019-04-01T08:26:16.049Z,102346.74
2019-04-01T08:28:46.551Z,102347.53
2019-04-01T08:31:17.071Z,102344.20
2019-04-01T08:33:50.233Z,102343.59
2019-04-01T08:36:20.156Z,102339.43
2019-04-01T08:38:55.286Z,102337.30
2019-04-01T08:41:24.349Z,102344.66
2019-04-01T08:43:54.897Z,102337.88
2019-04-01T08:46:25.321Z,102331.22
2019-04-01T08:48:56.273Z,102328.87
2019-04-01T08:51:26.782Z,102329.03
2019-04-01T08:53:57.273Z,102331.59
2019-04-01T08:56:28.050Z,102323.08
2019-04-01T08:58:58.564Z,102324.95
2019-04-01T09:01:35.407Z,102331.52
2019-04-01T09:04:01.432Z,102330.19
2019-04-01T09:06:32.013Z,102325.77
2019-04-01T09:09:05.553Z,102323.19
2019-04-01T09:11:38.318Z,102321.01
2019-04-01T09:14:08.674Z,102323.16
2019-04-01T09:16:52.062Z,102311.25
2019-04-01T09:19:22.615Z,102303.38
2019-04-01T09:21:53.177Z,102314.14
2019-04-01T09:24:23.748Z,102305.02
2019-04-01T09:26:54.406Z,102303.88
2019-04-01T09:29:24.986Z,102305.88
2019-04-01T09:31:55.698Z,102309.38
2019-04-01T09:34:26.253Z,102299.55
2019-04-01T09:36:56.785Z,102301.18
2019-04-01T09:39:27.376Z,102302.05
2019-04-01T09:41:57.886Z,102295.02
2019-04-01T09:44:36.701Z,102299.41
2019-04-01T09:47:00.719Z,102290.62
2019-04-01T09:49:31.280Z,102293.15
2019-04-01T09:52:03.834Z,102281.93
2019-04-01T09:54:34.138Z,102285.82
2019-04-01T09:57:16.681Z,102286.48
2019-04-01T09:59:36.898Z,102285.73
2019-04-01T10:02:07.412Z,102283.71
2019-04-01T10:04:37.923Z,102273.19
2019-04-01T10:07:08.515Z,102274.66
2019-04-01T10:09:39.083Z,102271.78
2019-04-01T10:12:09.644Z,102266.08
2019-04-01T10:14:40.183Z,102262.19
2019-04-01T10:17:10.783Z,102255.61
2019-04-01T10:19:41.308Z,102252.38
2019-04-01T10:22:11.960Z,102254.73
2019-04-01T10:24:42.515Z,102266.19
2019-04-01T10:27:13.138Z,102248.66
2019-04-01T10:29:43.624Z,102244.07
2019-04-01T10:32:14.241Z,102242.30
2019-04-01T10:34:44.727Z,102236.80
2019-04-01T10:37:15.448Z,102239.80
2019-04-01T10:39:46.036Z,102239.62
2019-04-01T10:42:16.553Z,102230.38
2019-04-01T10:44:47.107Z,102194.81
2019-04-01T10:47:17.761Z,102218.99
2019-04-01T10:49:48.302Z,102228.59
2019-04-01T10:52:18.932Z,102222.65
2019-04-01T10:54:49.511Z,102227.92
2019-04-01T10:57:20.070Z,102215.34
2019-04-01T10:59:50.641Z,102211.33
2019-04-01T11:02:21.373Z,102216.84
2019-04-01T11:04:51.927Z,102207.83
2019-04-01T11:07:22.569Z,102210.46
2019-04-01T11:09:53.259Z,102208.85
2019-04-01T11:12:24.860Z,102210.55
2019-04-01T11:14:55.387Z,102209.89
2019-04-01T11:17:25.914Z,102203.09
2019-04-01T11:19:56.555Z,102192.18
2019-04-01T11:22:27.023Z,102194.86
2019-04-01T11:24:57.555Z,102193.74
2019-04-01T11:27:28.371Z,102187.52
2019-04-01T11:29:58.841Z,102183.20
2019-04-01T11:32:29.442Z,102182.03
2019-04-01T11:35:00.028Z,102179.73
2019-04-01T11:37:30.531Z,102179.78
2019-04-01T11:40:01.189Z,102098.03
2019-04-01T11:42:31.731Z,102168.58
2019-04-01T11:45:05.594Z,102163.09
2019-04-01T11:47:34.677Z,102162.08
2019-04-01T11:50:05.278Z,102158.75
2019-04-01T11:52:35.959Z,102158.41
2019-04-01T11:55:08.935Z,102151.05
2019-04-01T11:57:40.570Z,102152.92
2019-04-01T12:00:14.528Z,102142.38
2019-04-01T12:02:46.154Z,102137.38
2019-04-01T12:05:16.727Z,102134.80
2019-04-01T12:07:47.275Z,102128.78
2019-04-01T12:10:17.747Z,102126.70
2019-04-01T12:12:48.292Z,102122.84
2019-04-01T12:15:18.985Z,102122.52
2019-04-01T12:17:49.567Z,102120.48
2019-04-01T12:20:20.043Z,102110.22
2019-04-01T12:22:50.543Z,102107.35
2019-04-01T12:25:21.167Z,102102.78
2019-04-01T12:27:51.774Z,102100.94
2019-04-01T12:30:22.386Z,102102.64
2019-04-01T12:32:53.076Z,102095.27
2019-04-01T12:35:23.561Z,102080.94
2019-04-01T12:37:54.097Z,102068.81
2019-04-01T12:40:24.612Z,102065.09
2019-04-01T12:42:55.114Z,102073.47
2019-04-01T12:45:26.422Z,102063.48
2019-04-01T12:47:56.948Z,102070.55
2019-04-01T12:50:27.582Z,102071.56
2019-04-01T12:52:58.151Z,102062.02
2019-04-01T12:55:28.648Z,102060.34
2019-04-01T12:57:59.211Z,102047.45
2019-04-01T13:00:29.780Z,102047.09
2019-04-01T13:03:00.295Z,102037.47
2019-04-01T13:05:30.824Z,102041.41
2019-04-01T13:08:01.432Z,102032.52
2019-04-01T13:10:31.963Z,102025.06
2019-04-01T13:13:02.461Z,102022.05
2019-04-01T13:15:33.057Z,102022.06
2019-04-01T13:18:03.612Z,102008.79
2019-04-01T13:20:38.204Z,101999.53
2019-04-01T13:23:06.491Z,102002.13
2019-04-01T13:25:37.115Z,101995.03
2019-04-01T13:28:07.630Z,101997.62
2019-04-01T13:30:38.330Z,101985.87
2019-04-01T13:33:08.834Z,101982.71
2019-04-01T13:35:39.936Z,101983.02
2019-04-01T13:38:11.139Z,101980.77
2019-04-01T13:40:42.486Z,101966.53
2019-04-01T13:43:16.839Z,101962.63
2019-04-01T13:45:46.320Z,101955.08
2019-04-01T13:48:17.316Z,101943.98
2019-04-01T13:50:47.770Z,101948.66
2019-04-01T13:53:18.352Z,101940.36
2019-04-01T13:55:48.889Z,101943.58
2019-04-01T13:58:19.409Z,101942.69
2019-04-01T14:00:49.928Z,101933.62
2019-04-01T14:03:20.438Z,101932.83
2019-04-01T14:05:50.971Z,101927.58
2019-04-01T14:08:22.378Z,101926.78
2019-04-01T14:10:54.483Z,101923.44
2019-04-01T14:13:25.084Z,101910.78
2019-04-01T14:15:55.637Z,101911.73
2019-04-01T14:18:26.127Z,101898.63
2019-04-01T14:20:56.659Z,101897.55
2019-04-01T14:23:27.205Z,101898.34
2019-04-01T14:25:57.698Z,101894.18
2019-04-01T14:28:28.308Z,101892.00
2019-04-01T14:30:58.839Z,101883.64
2019-04-01T14:33:32.474Z,101875.40
2019-04-01T14:36:01.810Z,101865.38
2019-04-01T14:38:32.595Z,101862.77
2019-04-01T14:41:03.198Z,101863.50
2019-04-01T14:43:33.761Z,101853.43
2019-04-01T14:46:05.803Z,101850.91
2019-04-01T14:48:36.491Z,101850.78
2019-04-01T14:51:07.105Z,101846.29
2019-04-01T14:53:37.957Z,101837.07
2019-04-01T14:56:08.728Z,101833.25
2019-04-01T14:58:39.252Z,101828.23
2019-04-01T15:01:11.176Z,101816.64
2019-04-01T15:03:41.623Z,101811.80
2019-04-01T15:06:12.168Z,101816.11
2019-04-01T15:08:42.677Z,101809.30
2019-04-01T15:11:13.330Z,101812.92
2019-04-01T15:13:43.842Z,101806.37
2019-04-01T15:16:14.388Z,101799.59
2019-04-01T15:18:45.522Z,101802.85
2019-04-01T15:21:16.315Z,101789.84
2019-04-01T15:23:46.850Z,101783.13
2019-04-01T15:26:17.369Z,101783.73
2019-04-01T15:28:47.863Z,101775.86
2019-04-01T15:31:18.397Z,101772.56
2019-04-01T15:33:49.414Z,101768.52
2019-04-01T15:36:20.709Z,101770.47
2019-04-01T15:38:51.435Z,101761.34
2019-04-01T15:41:21.892Z,101751.27
2019-04-01T15:43:52.359Z,101755.45
2019-04-01T15:46:22.922Z,101744.00
2019-04-01T15:48:53.428Z,101746.39
2019-04-01T15:51:23.947Z,101746.84
2019-04-01T15:53:54.527Z,101747.14
2019-04-01T15:56:25.553Z,101734.61
2019-04-01T15:58:56.143Z,101718.69
2019-04-01T16:01:30.092Z,101726.55
2019-04-01T16:03:58.897Z,101724.99
2019-04-01T16:06:32.292Z,101722.38
2019-04-01T16:09:03.422Z,101718.19
2019-04-01T16:11:34.053Z,101716.28
2019-04-01T16:14:04.580Z,101705.45
2019-04-01T16:16:36.071Z,101708.94
2019-04-01T16:19:06.882Z,101699.30
2019-04-01T16:21:37.527Z,101700.73
2019-04-01T16:24:10.995Z,101691.70
2019-04-01T16:26:40.394Z,101687.69
2019-04-01T16:29:10.913Z,101687.50
2019-04-01T16:31:41.452Z,101686.49
2019-04-01T16:34:11.881Z,101674.23
2019-04-01T16:36:42.536Z,101675.83
2019-04-01T16:39:13.085Z,101666.53
2019-04-01T16:41:43.560Z,101663.00
2019-04-01T16:44:14.301Z,101665.86
2019-04-01T16:46:45.646Z,101671.19
2019-04-01T16:49:16.212Z,101667.59
2019-04-01T16:51:46.773Z,101664.03
2019-04-01T16:54:17.319Z,101668.94
2019-04-01T16:56:47.769Z,101665.15
2019-04-01T16:59:18.278Z,101666.98
2019-04-01T17:01:48.773Z,101656.84
2019-04-01T17:04:19.327Z,101659.81
2019-04-01T17:06:49.913Z,101656.75
2019-04-01T17:09:20.510Z,101652.53
2019-04-01T17:11:54.175Z,101651.75
2019-04-01T17:14:24.350Z,101651.94
2019-04-01T17:16:55.338Z,101646.61
2019-04-01T17:19:27.811Z,101644.36
2019-04-01T17:21:58.134Z,101643.78
2019-04-01T17:24:28.669Z,101640.02
2019-04-01T17:27:11.668Z,101637.78
2019-04-01T17:29:45.051Z,101638.56
2019-04-01T17:32:15.728Z,101638.28
2019-04-01T17:34:46.256Z,101641.80
2019-04-01T17:37:16.741Z,101639.28
2019-04-01T17:39:47.305Z,101632.97
2019-04-01T17:42:17.887Z,101630.05
2019-04-01T17:44:48.426Z,101635.81
2019-04-01T17:47:18.915Z,101630.03
2019-04-01T17:49:49.476Z,101630.41
2019-04-01T17:52:19.965Z,101631.59
2019-04-01T17:54:50.535Z,101629.87
2019-04-01T17:57:21.068Z,101634.06
2019-04-01T17:59:51.678Z,101631.92
2019-04-01T18:02:29.873Z,101628.44
2019-04-01T18:05:00.481Z,101629.73
2019-04-01T18:07:31.111Z,101638.02
2019-04-01T18:10:01.814Z,101635.70
2019-04-01T18:12:32.416Z,101637.84
2019-04-01T18:15:07.018Z,101636.40
2019-04-01T18:17:37.995Z,101632.25
2019-04-01T18:20:09.228Z,101633.31
2019-04-01T18:22:40.188Z,101636.61
2019-04-01T18:25:11.297Z,101634.27
2019-04-01T18:27:42.031Z,101642.43
2019-04-01T18:30:13.312Z,101640.75
2019-04-01T18:32:43.846Z,101639.46
2019-04-01T18:35:14.542Z,101639.86
2019-04-01T18:37:45.103Z,101632.72
2019-04-01T18:40:15.685Z,101642.41
2019-04-01T18:42:46.259Z,101640.81
2019-04-01T18:45:17.152Z,101635.34
2019-04-01T18:47:47.752Z,101631.25
2019-04-01T18:50:18.274Z,101635.86
2019-04-01T18:52:49.329Z,101632.30
2019-04-01T18:55:19.912Z,101637.55
2019-04-01T18:57:50.648Z,101633.87
2019-04-01T19:00:21.877Z,101634.63
2019-04-01T19:02:55.368Z,101631.55
2019-04-01T19:05:24.984Z,101632.19
2019-04-01T19:07:55.716Z,101627.95
2019-04-01T19:10:26.560Z,101633.63
2019-04-01T19:13:05.758Z,101629.39
2019-04-01T19:15:30.930Z,101625.80
2019-04-01T19:18:01.987Z,101632.55
2019-04-01T19:20:32.877Z,101626.86
2019-04-01T19:23:03.613Z,101625.36
2019-04-01T19:25:34.355Z,101624.67
2019-04-01T19:28:04.987Z,101621.34
2019-04-01T19:30:35.638Z,101617.37
2019-04-01T19:33:06.837Z,101615.45
2019-04-01T19:35:37.624Z,101622.61
2019-04-01T19:38:08.188Z,101613.38
2019-04-01T19:40:38.687Z,101615.45
2019-04-01T19:43:09.221Z,101616.41
2019-04-01T19:45:40.486Z,101609.46
2019-04-01T19:48:11.058Z,101607.55
2019-04-01T19:50:41.678Z,101607.72
2019-04-01T19:53:12.183Z,101604.55
2019-04-01T19:55:43.951Z,101602.86
2019-04-01T19:58:14.620Z,101603.70
2019-04-01T20:00:45.146Z,101599.45
2019-04-01T20:03:15.665Z,101599.42
2019-04-01T20:05:46.185Z,101589.42
2019-04-01T20:08:16.843Z,101586.02
2019-04-01T20:10:47.398Z,101588.72
2019-04-01T20:13:17.894Z,101581.48
2019-04-01T20:15:48.426Z,101584.41
2019-04-01T20:18:18.950Z,101579.06
2019-04-01T20:20:49.499Z,101572.41
2019-04-01T20:23:20.011Z,101568.35
2019-04-01T20:25:53.348Z,101566.92
2019-04-01T20:28:23.848Z,101567.19
2019-04-01T20:31:13.701Z,101561.69
2019-04-01T20:33:44.229Z,101560.49
2019-04-01T20:36:28.904Z,101556.56
2019-04-01T20:38:58.934Z,101558.13
2019-04-01T20:41:29.426Z,101557.61
2019-04-01T20:43:59.983Z,101557.91
2019-04-01T20:46:30.935Z,101555.73
2019-04-01T20:49:02.444Z,101551.92
2019-04-01T20:51:40.431Z,101545.25
2019-04-01T20:54:11.369Z,101541.47
2019-04-01T20:56:42.275Z,101539.48
2019-04-01T20:59:12.771Z,101533.23
2019-04-01T21:01:43.339Z,101525.15
2019-04-01T21:04:13.847Z,101527.24
2019-04-01T21:06:44.398Z,101522.75
2019-04-01T21:09:16.168Z,101518.29
2019-04-01T21:11:47.386Z,101513.16
2019-04-01T21:14:18.554Z,101517.47
2019-04-01T21:16:49.181Z,101510.03
2019-04-01T21:19:19.708Z,101508.41
2019-04-01T21:21:50.661Z,101504.74
2019-04-01T21:24:21.654Z,101497.92
2019-04-01T21:26:52.115Z,101498.66
2019-04-01T21:29:23.215Z,101496.01
2019-04-01T21:31:53.686Z,101490.92
2019-04-01T21:34:24.398Z,101494.90
2019-04-01T21:36:54.887Z,101490.05
2019-04-01T21:39:25.434Z,101479.50
2019-04-01T21:41:55.955Z,101481.80
2019-04-01T21:44:26.477Z,101472.20
2019-04-01T21:46:57.073Z,101459.98
2019-04-01T21:49:27.556Z,101459.98
2019-04-01T21:51:58.079Z,101471.33
2019-04-01T21:54:28.647Z,101459.84
2019-04-01T21:56:59.204Z,101454.06
2019-04-01T21:59:30.604Z,101454.20
2019-04-01T22:02:01.096Z,101456.91
2019-04-01T22:04:31.615Z,101449.16
2019-04-01T22:07:02.146Z,101447.50
2019-04-01T22:09:33.917Z,101447.72
2019-04-01T22:12:04.478Z,101440.27
2019-04-01T22:14:35.066Z,101436.95
2019-04-01T22:17:05.687Z,101429.18
2019-04-01T22:19:36.313Z,101421.16
2019-04-01T22:22:06.796Z,101423.25
2019-04-01T22:24:37.331Z,101415.53
2019-04-01T22:27:07.831Z,101403.72
2019-04-01T22:29:38.350Z,101403.33
2019-04-01T22:32:08.762Z,101403.09
2019-04-01T22:34:39.290Z,101404.42
2019-04-01T22:37:09.779Z,101399.97
2019-04-01T22:39:40.267Z,101401.45
2019-04-01T22:42:10.810Z,101390.26
2019-04-01T22:44:41.347Z,101400.36
2019-04-01T22:47:11.884Z,101396.36
2019-04-01T22:49:42.396Z,101394.83
2019-04-01T22:52:12.912Z,101396.63
2019-04-01T22:54:43.422Z,101390.72
2019-04-01T22:57:13.943Z,101385.30
2019-04-01T22:59:44.449Z,101390.20
2019-04-01T23:02:14.931Z,101383.83
2019-04-01T23:04:45.456Z,101375.69
2019-04-01T23:07:15.941Z,101386.34
2019-04-01T23:09:46.533Z,101381.21
2019-04-01T23:12:17.021Z,101376.48
2019-04-01T23:14:48.173Z,101378.86
2019-04-01T23:17:18.678Z,101365.55
2019-04-01T23:19:49.280Z,101368.31
2019-04-01T23:22:19.800Z,101369.84
2019-04-01T23:24:50.350Z,101376.86
2019-04-01T23:27:20.779Z,101373.49
2019-04-01T23:29:51.657Z,101370.85
2019-04-01T23:32:22.297Z,101377.19
2019-04-01T23:34:52.851Z,101366.12
2019-04-01T23:37:23.317Z,101363.13
2019-04-01T23:39:53.759Z,101350.81
2019-04-01T23:42:24.332Z,101358.44
2019-04-01T23:44:54.910Z,101344.50
2019-04-01T23:47:25.432Z,101337.98
2019-04-01T23:49:55.976Z,101331.59
2019-04-01T23:52:27.027Z,101326.99
2019-04-01T23:54:57.556Z,101332.37
2019-04-01T23:57:28.066Z,101326.83
2019-04-01T23:59:58.583Z,101317.52
